| time (UTC) | temp F | wind direction | speed knots | gust knots | rain 1hr in | rain 24hr in | rain mn in | humidity % | barometer mb |
| 20260504070219 | 52 | 260 | 0.0 | 0.0 | 0.00 | 0.07 | 0.00 | 70 | 1003.7 |
| 20260504060218 | 54 | 260 | 0.0 | 0.0 | 0.00 | 0.07 | 0.00 | 65 | 1004.6 |
| 20260504050218 | 57 | 260 | 0.0 | 0.0 | 0.00 | 0.07 | 0.00 | 60 | 1004.6 |
| 20260504043218 | 58 | 275 | 0.0 | 0.0 | 0.00 | 0.07 | 0.07 | 60 | 1004.5 |
| 20260504040218 | 58 | 212 | 0.0 | 3.5 | 0.00 | 0.07 | 0.07 | 59 | 1004.4 |
| 20260504033218 | 58 | 242 | 0.0 | 0.0 | 0.00 | 0.07 | 0.07 | 58 | 1004.5 |
| 20260504030218 | 59 | 239 | 0.0 | 0.0 | 0.00 | 0.07 | 0.07 | 56 | 1005.0 |
| 20260504020218 | 62 | 227 | 0.0 | 1.7 | 0.00 | 0.07 | 0.07 | 52 | 1004.8 |
| 20260504003218 | 66 | 236 | 0.0 | 4.3 | 0.00 | 0.07 | 0.07 | 44 | 1004.3 |
| 20260504000219 | 67 | 232 | 0.9 | 7.0 | 0.00 | 0.07 | 0.07 | 42 | 1004.5 |
| 20260503233218 | 67 | 216 | 1.7 | 13.0 | 0.00 | 0.07 | 0.07 | 40 | 1004.5 |
| 20260503230218 | 68 | 74 | 3.5 | 12.2 | 0.00 | 0.07 | 0.07 | 40 | 1004.6 |
| 20260503223218 | 68 | 212 | 4.3 | 19.1 | 0.00 | 0.07 | 0.07 | 38 | 1004.7 |
| 20260503220218 | 67 | 215 | 7.0 | 8.7 | 0.00 | 0.07 | 0.07 | 39 | 1004.9 |
| 20260503210218 | 68 | 215 | 4.3 | 10.4 | 0.00 | 0.07 | 0.07 | 38 | 1005.8 |
| 20260503203218 | 66 | 223 | 5.2 | 7.8 | 0.00 | 0.07 | 0.07 | 37 | 1006.3 |
| 20260503200218 | 65 | 267 | 1.7 | 13.0 | 0.00 | 0.07 | 0.07 | 37 | 1006.8 |
| 20260503193218 | 64 | 219 | 0.9 | 12.2 | 0.00 | 0.07 | 0.07 | 45 | 1007.4 |
| 20260503190218 | 60 | 211 | 3.5 | 18.2 | 0.00 | 0.07 | 0.07 | 52 | 1007.5 |
| 20260503183218 | 58 | 122 | 0.0 | 16.5 | 0.00 | 0.07 | 0.07 | 63 | 1008.0 |
| 20260503180218 | 55 | 128 | 4.3 | 12.2 | 0.00 | 0.07 | 0.07 | 69 | 1008.7 |
| 20260503173218 | 51 | 143 | 2.6 | 12.2 | 0.02 | 0.07 | 0.07 | 80 | 1009.2 |
| 20260503170218 | 49 | 172 | 0.9 | 7.8 | 0.03 | 0.07 | 0.07 | 83 | 1010.6 |
| 20260503160218 | 51 | 227 | 1.7 | 7.0 | 0.04 | 0.04 | 0.04 | 74 | 1012.0 |
| 20260503140218 | 51 | 244 | 0.0 | 7.8 | 0.00 | 0.00 | 0.00 | 57 | 1012.4 |
| 20260503130217 | 48 | 269 | 0.0 | 3.5 | 0.00 | 0.00 | 0.00 | 60 | 1012.8 |
| 20260503120218 | 47 | 223 | 0.0 | 0.0 | 0.00 | 0.00 | 0.00 | 60 | 1013.0 |
| 20260503110217 | 45 | 229 | 0.0 | 0.0 | 0.00 | 0.00 | 0.00 | 61 | 1012.7 |
| 20260503100217 | 44 | 229 | 0.0 | 0.0 | 0.00 | 0.00 | 0.00 | 63 | 1012.9 |
| 20260503090218 | 44 | 227 | 0.0 | 0.0 | 0.00 | 0.00 | 0.00 | 61 | 1013.3 |
| 20260503080217 | 44 | 242 | 0.0 | 0.0 | 0.00 | 0.00 | 0.00 | 59 | 1013.7 |